Time;durP1;ratioP1;P1;durP2;ratioP2;P2;SDS_P1;SDS_P2;PMS_P1;PMS_P2;Temp;Humidity;BMP_temperature;BMP_pressure;BME280_temperature;BME280_humidity;BME280_pressure;Samples;Min_cycle;Max_cycle;Signal;HPM_P1;HPM_P2
2024/01/08 00:01:39;;;;;;;0.95;0.95;;;0.60;92.40;;;;;;4931580;29;20419;-58
2024/01/08 00:04:05;;;;;;;1.02;0.80;;;0.60;92.70;;;;;;4926166;29;20600;-57
2024/01/08 00:06:31;;;;;;;0.67;0.67;;;0.60;92.90;;;;;;4925077;29;20177;-55
2024/01/08 00:08:57;;;;;;;1.33;1.23;;;0.70;92.70;;;;;;4925373;29;20832;-57
2024/01/08 00:11:22;;;;;;;1.20;1.10;;;0.80;93.00;;;;;;4926158;29;20173;-58
2024/01/08 00:13:48;;;;;;;0.67;0.67;;;0.80;92.60;;;;;;4924260;29;20220;-58
2024/01/08 00:16:14;;;;;;;1.13;1.13;;;0.80;92.40;;;;;;4925621;29;20188;-56
2024/01/08 00:18:40;;;;;;;0.97;0.97;;;0.90;92.30;;;;;;4925959;29;20192;-58
2024/01/08 00:21:07;;;;;;;0.50;0.50;;;0.90;92.40;;;;;;4924232;29;20177;-55
2024/01/08 00:23:37;;;;;;;0.70;0.70;;;0.70;92.00;;;;;;4925466;29;20511;-58
2024/01/08 00:26:03;;;;;;;1.30;0.93;;;0.80;92.80;;;;;;4926206;29;20221;-58
2024/01/08 00:28:28;;;;;;;0.70;0.70;;;0.90;92.40;;;;;;4924409;29;20204;-56
2024/01/08 00:30:54;;;;;;;2.53;1.43;;;0.90;92.30;;;;;;4925084;29;20655;-56
2024/01/08 00:33:20;;;;;;;0.60;0.60;;;0.80;92.10;;;;;;4925630;29;20232;-58
2024/01/08 00:35:46;;;;;;;0.75;0.75;;;0.80;91.80;;;;;;4924078;29;20184;-55
2024/01/08 00:38:11;;;;;;;0.97;0.80;;;0.70;91.80;;;;;;4925725;29;20647;-57
2024/01/08 00:40:37;;;;;;;0.77;0.77;;;0.80;91.90;;;;;;4925235;29;20236;-58
2024/01/08 00:43:03;;;;;;;1.53;0.87;;;0.70;91.60;;;;;;4923988;29;21292;-58
2024/01/08 00:45:30;;;;;;;0.40;0.40;;;0.70;92.00;;;;;;4924105;29;20177;-58
2024/01/08 00:47:55;;;;;;;1.08;0.98;;;0.60;92.00;;;;;;4924978;29;20410;-58
2024/01/08 00:50:21;;;;;;;0.67;0.67;;;0.70;92.10;;;;;;4925448;29;20238;-58
2024/01/08 00:52:47;;;;;;;1.43;0.70;;;0.60;91.70;;;;;;4923847;29;20192;-58
2024/01/08 00:55:13;;;;;;;2.45;0.82;;;0.50;92.10;;;;;;4925252;29;20419;-55
2024/01/08 00:57:39;;;;;;;0.63;0.60;;;0.50;91.90;;;;;;4922469;29;20230;-57
2024/01/08 01:00:11;;;;;;;1.73;0.82;;;0.30;91.70;;;;;;4925623;29;20660;-58
2024/01/08 01:02:36;;;;;;;0.88;0.85;;;0.40;92.10;;;;;;4908425;29;20203;-58
2024/01/08 01:05:02;;;;;;;0.60;0.60;;;0.40;92.20;;;;;;4923842;29;20260;-56
2024/01/08 01:07:29;;;;;;;0.40;0.40;;;0.50;92.00;;;;;;4924858;29;20187;-57
2024/01/08 01:09:55;;;;;;;1.50;0.98;;;0.30;91.50;;;;;;4924736;29;20222;-58
2024/01/08 01:12:20;;;;;;;0.70;0.70;;;0.20;92.00;;;;;;4925949;29;20218;-57
2024/01/08 01:14:46;;;;;;;0.50;0.50;;;0.20;92.30;;;;;;4934284;29;20311;-56
2024/01/08 01:17:12;;;;;;;2.20;1.17;;;0.10;92.70;;;;;;4933718;29;20168;-58
2024/01/08 01:19:37;;;;;;;0.77;0.47;;;0.20;92.40;;;;;;4934357;29;20676;-57
2024/01/08 01:22:03;;;;;;;0.60;0.60;;;0.20;92.50;;;;;;4934158;29;20174;-58
2024/01/08 01:24:29;;;;;;;0.73;0.73;;;0.30;92.10;;;;;;4934366;29;20570;-57
2024/01/08 01:26:55;;;;;;;0.50;0.50;;;0.30;91.60;;;;;;4934455;29;20179;-57
2024/01/08 01:29:20;;;;;;;1.13;1.07;;;0.10;91.70;;;;;;4934413;29;20431;-57
2024/01/08 01:31:46;;;;;;;0.40;0.40;;;0.10;92.00;;;;;;4934457;29;20553;-57
2024/01/08 01:34:12;;;;;;;0.67;0.67;;;0.10;91.70;;;;;;4934157;29;20199;-57
2024/01/08 01:36:38;;;;;;;0.38;0.38;;;0.10;92.10;;;;;;4934390;29;20182;-57
2024/01/08 01:39:04;;;;;;;0.67;0.67;;;0.00;92.00;;;;;;4934419;29;20657;-54
2024/01/08 01:41:31;;;;;;;0.55;0.55;;;-0.10;91.70;;;;;;4934144;29;20179;-56
2024/01/08 01:43:56;;;;;;;2.05;1.38;;;-0.20;91.80;;;;;;4934253;29;20206;-53
2024/01/08 01:46:45;;;;;;;1.37;0.83;;;-0.20;92.30;;;;;;4934324;29;20178;-57
2024/01/08 01:49:12;;;;;;;0.50;0.50;;;-0.10;92.20;;;;;;4934335;29;20668;-54
2024/01/08 01:51:41;;;;;;;0.40;0.40;;;-0.10;92.10;;;;;;4933974;29;20194;-57
2024/01/08 01:54:07;;;;;;;0.80;0.80;;;0.00;92.00;;;;;;4933940;29;20705;-56
2024/01/08 01:56:34;;;;;;;0.40;0.40;;;0.00;91.70;;;;;;4934053;29;20650;-58
2024/01/08 01:59:03;;;;;;;0.50;0.50;;;0.00;91.70;;;;;;4934141;29;20597;-57
2024/01/08 02:01:29;;;;;;;0.38;0.38;;;-0.10;91.80;;;;;;4933754;29;20229;-56
2024/01/08 02:03:55;;;;;;;0.60;0.57;;;-0.40;92.10;;;;;;4934020;29;20194;-55
2024/01/08 02:06:23;;;;;;;0.90;0.80;;;-0.50;92.40;;;;;;4934152;29;20353;-57
2024/01/08 02:08:51;;;;;;;0.75;0.75;;;-0.40;92.50;;;;;;4933904;29;20414;-56
2024/01/08 02:11:18;;;;;;;0.68;0.68;;;-0.50;92.50;;;;;;4933792;29;20660;-58
2024/01/08 02:13:43;;;;;;;0.40;0.40;;;-0.50;92.60;;;;;;4933735;29;20218;-57
2024/01/08 02:16:09;;;;;;;0.33;0.33;;;-0.50;92.60;;;;;;4933964;29;20185;-58
2024/01/08 02:18:35;;;;;;;7.57;1.37;;;-0.50;92.70;;;;;;4936702;29;20175;-58
2024/01/08 02:21:00;;;;;;;0.50;0.50;;;-0.70;92.30;;;;;;4937150;29;20198;-55
2024/01/08 02:23:26;;;;;;;1.93;1.83;;;-0.70;92.70;;;;;;4937285;29;20289;-57
2024/01/08 02:25:52;;;;;;;0.40;0.40;;;-1.00;92.50;;;;;;4937403;29;20178;-57
2024/01/08 02:28:17;;;;;;;0.50;0.50;;;-1.10;92.90;;;;;;4937231;29;20176;-58
2024/01/08 02:30:43;;;;;;;0.73;0.73;;;-1.00;93.20;;;;;;4937138;29;20238;-56
2024/01/08 02:33:09;;;;;;;0.40;0.40;;;-0.90;93.40;;;;;;4937272;29;20564;-55
2024/01/08 02:35:36;;;;;;;0.60;0.60;;;-0.70;93.30;;;;;;4937281;29;20177;-55
2024/01/08 02:38:02;;;;;;;0.63;0.63;;;-0.60;93.20;;;;;;4937160;29;20173;-57
2024/01/08 02:40:27;;;;;;;1.40;0.70;;;-0.50;93.10;;;;;;4936979;29;20561;-57
2024/01/08 02:42:53;;;;;;;1.00;1.00;;;-0.40;92.80;;;;;;4936803;29;20206;-57
2024/01/08 02:45:19;;;;;;;0.47;0.47;;;-0.40;92.60;;;;;;4937317;29;20182;-56
2024/01/08 02:47:44;;;;;;;0.40;0.40;;;-0.50;92.20;;;;;;4937045;29;20652;-58
2024/01/08 02:50:10;;;;;;;0.63;0.63;;;-0.60;91.90;;;;;;4936643;29;20174;-56
2024/01/08 02:52:36;;;;;;;1.03;0.80;;;-0.60;92.10;;;;;;4928182;29;20654;-57
2024/01/08 02:55:02;;;;;;;4.57;1.33;;;-0.70;92.40;;;;;;4927859;29;20823;-58
2024/01/08 02:57:29;;;;;;;1.70;1.20;;;-1.00;92.10;;;;;;4930546;29;20178;-56
2024/01/08 02:59:58;;;;;;;1.27;1.27;;;-1.20;92.70;;;;;;4928740;29;20543;-56
2024/01/08 03:02:27;;;;;;;2.58;2.40;;;-1.20;93.10;;;;;;4909747;29;20195;-56
2024/01/08 03:04:53;;;;;;;0.40;0.40;;;-1.40;93.10;;;;;;4925153;29;20171;-57
2024/01/08 03:07:20;;;;;;;0.80;0.80;;;-1.30;93.40;;;;;;4936662;29;20181;-58
2024/01/08 03:09:58;;;;;;;0.50;0.50;;;-1.40;93.60;;;;;;4936574;29;20188;-58
2024/01/08 03:12:24;;;;;;;0.93;0.93;;;-1.40;93.30;;;;;;4935029;29;20224;-57
2024/01/08 03:14:50;;;;;;;0.50;0.50;;;-1.20;93.70;;;;;;4936527;29;20174;-57
2024/01/08 03:17:16;;;;;;;0.60;0.60;;;-1.20;93.30;;;;;;4936510;29;20175;-57
2024/01/08 03:19:42;;;;;;;1.00;0.83;;;-1.30;92.80;;;;;;4936349;29;20640;-55
2024/01/08 03:22:07;;;;;;;0.40;0.40;;;-1.40;92.90;;;;;;4935888;29;20410;-57
2024/01/08 03:24:34;;;;;;;0.87;0.87;;;-1.50;93.10;;;;;;4936286;29;20178;-58
2024/01/08 03:27:00;;;;;;;2.67;0.55;;;-1.50;93.20;;;;;;4936242;29;20422;-57
2024/01/08 03:29:26;;;;;;;4.10;1.57;;;-1.40;93.60;;;;;;4935289;29;20190;-57
2024/01/08 03:31:51;;;;;;;2.00;1.90;;;-1.40;93.40;;;;;;4935771;29;20633;-57
2024/01/08 03:34:17;;;;;;;1.33;1.13;;;-1.40;92.90;;;;;;4917926;29;20234;-57
2024/01/08 03:36:49;;;;;;;0.88;0.85;;;-1.50;92.90;;;;;;4917239;29;20526;-56
2024/01/08 03:39:17;;;;;;;0.50;0.50;;;-1.50;93.00;;;;;;4917360;29;20650;-56
2024/01/08 03:41:43;;;;;;;0.38;0.38;;;-1.80;92.90;;;;;;4916660;29;20174;-57
2024/01/08 03:44:09;;;;;;;0.77;0.77;;;-2.00;93.50;;;;;;4917000;29;20739;-57
2024/01/08 03:46:36;;;;;;;0.60;0.60;;;-2.00;93.60;;;;;;4917078;29;20195;-57
2024/01/08 03:49:02;;;;;;;0.32;0.32;;;-1.80;93.50;;;;;;4916808;29;20179;-57
2024/01/08 03:51:28;;;;;;;1.45;1.35;;;-1.80;93.30;;;;;;4916554;29;20182;-57
2024/01/08 03:53:54;;;;;;;0.37;0.37;;;-1.90;93.30;;;;;;4916606;29;20218;-55
2024/01/08 03:56:20;;;;;;;0.40;0.40;;;-1.80;93.60;;;;;;4916627;29;20423;-57
2024/01/08 03:58:45;;;;;;;2.23;1.20;;;-1.70;93.60;;;;;;4926093;29;20467;-58
2024/01/08 04:01:14;;;;;;;0.63;0.63;;;-1.60;93.40;;;;;;4932536;29;20606;-55
2024/01/08 04:03:40;;;;;;;0.57;0.57;;;-1.50;93.20;;;;;;4932923;29;20668;-57
2024/01/08 04:06:06;;;;;;;0.40;0.40;;;-1.50;93.00;;;;;;4929109;29;20194;-55
2024/01/08 04:08:31;;;;;;;0.50;0.50;;;-1.80;92.80;;;;;;4922925;29;20933;-57
2024/01/08 04:10:57;;;;;;;0.40;0.40;;;-1.80;92.90;;;;;;4921015;29;20415;-57
2024/01/08 04:13:23;;;;;;;0.80;0.80;;;-1.80;93.10;;;;;;4924211;29;20237;-57
2024/01/08 04:15:48;;;;;;;1.20;1.13;;;-1.80;93.20;;;;;;4925175;29;20564;-57
2024/01/08 04:18:14;;;;;;;4.30;1.33;;;-1.70;92.80;;;;;;4924485;29;20538;-56
2024/01/08 04:20:40;;;;;;;0.33;0.33;;;-1.80;92.70;;;;;;4926017;29;20237;-57
2024/01/08 04:23:06;;;;;;;4.70;1.55;;;-1.80;92.50;;;;;;4921034;29;20573;-57
2024/01/08 04:25:34;;;;;;;0.60;0.60;;;-1.80;92.80;;;;;;4916974;29;20183;-54
2024/01/08 04:28:00;;;;;;;0.50;0.50;;;-1.80;92.80;;;;;;4924842;29;20209;-55
2024/01/08 04:30:26;;;;;;;2.73;1.50;;;-1.80;93.00;;;;;;4924951;29;20239;-54
2024/01/08 04:32:53;;;;;;;2.15;0.60;;;-1.80;93.00;;;;;;4919544;29;20210;-56
2024/01/08 04:35:18;;;;;;;0.40;0.40;;;-1.70;92.80;;;;;;4920876;29;20229;-54
2024/01/08 04:37:44;;;;;;;1.47;0.70;;;-1.70;92.60;;;;;;4923655;29;20253;-57
2024/01/08 04:40:11;;;;;;;0.50;0.50;;;-1.70;92.30;;;;;;4923148;29;20672;-58
2024/01/08 04:42:36;;;;;;;0.40;0.40;;;-1.60;92.30;;;;;;4925761;29;20470;-55
2024/01/08 04:45:03;;;;;;;0.80;0.80;;;-1.80;92.10;;;;;;4931708;29;20265;-57
2024/01/08 04:47:28;;;;;;;1.02;0.82;;;-1.90;92.30;;;;;;4927603;29;20687;-57
2024/01/08 04:49:54;;;;;;;0.60;0.60;;;-1.80;92.60;;;;;;4923245;29;20206;-57
2024/01/08 04:52:20;;;;;;;0.43;0.43;;;-1.90;92.50;;;;;;4925293;29;20281;-56
2024/01/08 04:54:45;;;;;;;0.40;0.40;;;-1.70;93.00;;;;;;4924314;29;20708;-57
2024/01/08 04:57:11;;;;;;;0.53;0.53;;;-1.50;93.00;;;;;;4924792;29;20603;-60
2024/01/08 04:59:41;;;;;;;0.40;0.40;;;-1.40;92.50;;;;;;4920899;29;20558;-57
2024/01/08 05:02:06;;;;;;;0.98;0.98;;;-1.50;92.30;;;;;;4925044;29;20187;-57
2024/01/08 05:04:32;;;;;;;2.93;1.50;;;-1.50;92.50;;;;;;4923694;29;20183;-57
2024/01/08 05:06:57;;;;;;;2.83;0.90;;;-1.50;92.10;;;;;;4925053;29;20174;-59
2024/01/08 05:09:23;;;;;;;2.97;2.77;;;-1.50;92.10;;;;;;4925069;29;20720;-57
2024/01/08 05:11:49;;;;;;;1.43;1.33;;;-1.50;92.40;;;;;;4920668;29;20181;-57
2024/01/08 05:14:14;;;;;;;1.17;1.17;;;-1.30;92.60;;;;;;4915465;29;20203;-57
2024/01/08 05:16:40;;;;;;;1.67;1.57;;;-1.30;92.40;;;;;;4915662;29;20223;-57
2024/01/08 05:19:05;;;;;;;2.67;0.80;;;-1.20;92.40;;;;;;4915439;29;20545;-57
2024/01/08 05:21:31;;;;;;;0.90;0.90;;;-1.10;92.00;;;;;;4915220;29;20701;-57
2024/01/08 05:23:57;;;;;;;0.70;0.70;;;-1.10;92.20;;;;;;4915449;29;20206;-57
2024/01/08 05:26:22;;;;;;;1.17;0.97;;;-1.00;91.80;;;;;;4915478;29;20175;-57
2024/01/08 05:28:48;;;;;;;0.60;0.60;;;-1.30;91.50;;;;;;4925513;29;20422;-57
2024/01/08 05:31:14;;;;;;;1.00;1.00;;;-1.50;92.10;;;;;;4934141;29;20189;-59
2024/01/08 05:33:39;;;;;;;0.97;0.97;;;-1.50;91.80;;;;;;4924011;29;20206;-57
2024/01/08 05:36:06;;;;;;;1.00;1.00;;;-1.50;91.80;;;;;;4925520;29;20178;-57
2024/01/08 05:38:31;;;;;;;1.15;1.15;;;-1.50;91.90;;;;;;4925782;29;20532;-59
2024/01/08 05:40:57;;;;;;;0.40;0.40;;;-1.60;92.00;;;;;;4926077;29;20180;-57
2024/01/08 05:43:23;;;;;;;2.40;1.73;;;-1.50;91.90;;;;;;4906274;29;20206;-60
2024/01/08 05:45:49;;;;;;;0.40;0.40;;;-1.60;91.90;;;;;;4908109;29;20419;-57
2024/01/08 05:48:15;;;;;;;1.40;1.40;;;-1.50;92.00;;;;;;4924604;29;20179;-55
2024/01/08 05:50:42;;;;;;;0.50;0.50;;;-1.60;91.90;;;;;;4923504;29;20166;-55
2024/01/08 05:53:08;;;;;;;4.57;1.67;;;-1.60;92.20;;;;;;4925409;29;20525;-57
2024/01/08 05:55:34;;;;;;;0.47;0.47;;;-1.50;92.60;;;;;;4928084;29;20178;-57
2024/01/08 05:57:59;;;;;;;1.15;1.10;;;-1.40;92.40;;;;;;4928530;29;20423;-57
2024/01/08 06:00:25;;;;;;;0.40;0.40;;;-1.30;92.30;;;;;;4926853;29;20178;-59
2024/01/08 06:02:52;;;;;;;0.40;0.40;;;-1.40;91.90;;;;;;4927876;29;20221;-57
2024/01/08 06:05:18;;;;;;;1.20;1.20;;;-1.50;91.90;;;;;;4936595;29;20221;-57
2024/01/08 06:07:43;;;;;;;0.70;0.70;;;-1.80;92.20;;;;;;4956836;29;20655;-57
2024/01/08 06:10:09;;;;;;;1.63;0.70;;;-1.70;92.10;;;;;;4956585;29;20224;-57
2024/01/08 06:12:35;;;;;;;0.50;0.50;;;-1.70;92.10;;;;;;4956552;28;20245;-57
2024/01/08 06:15:00;;;;;;;0.73;0.73;;;-1.70;92.10;;;;;;4956667;29;20178;-58
2024/01/08 06:17:26;;;;;;;0.70;0.70;;;-1.70;92.20;;;;;;4956606;29;20185;-57
2024/01/08 06:19:52;;;;;;;0.40;0.40;;;-1.60;92.10;;;;;;4956518;29;20679;-58
2024/01/08 06:22:17;;;;;;;1.20;1.20;;;-1.40;92.20;;;;;;4956192;28;20417;-57
2024/01/08 06:24:43;;;;;;;0.70;0.70;;;-1.30;92.10;;;;;;4956283;29;20212;-57
2024/01/08 06:27:09;;;;;;;0.40;0.40;;;-1.40;92.00;;;;;;4956473;29;20169;-57
2024/01/08 06:29:34;;;;;;;1.90;1.47;;;-1.50;91.70;;;;;;4956504;29;20253;-57
2024/01/08 06:32:00;;;;;;;1.37;0.90;;;-1.40;91.90;;;;;;4956161;28;20202;-57
2024/01/08 06:34:26;;;;;;;1.03;0.93;;;-1.50;92.10;;;;;;4956201;29;20683;-57
2024/01/08 06:36:51;;;;;;;0.40;0.40;;;-1.60;92.10;;;;;;4956301;29;20647;-57
2024/01/08 06:39:17;;;;;;;1.53;1.23;;;-1.90;92.10;;;;;;4956206;29;20178;-57
2024/01/08 06:41:43;;;;;;;0.80;0.43;;;-2.00;92.30;;;;;;4956045;29;20423;-57
2024/01/08 06:44:08;;;;;;;0.70;0.70;;;-2.00;92.90;;;;;;4948026;28;20202;-57
2024/01/08 06:46:34;;;;;;;0.83;0.83;;;-2.00;92.50;;;;;;4927118;29;20938;-56
2024/01/08 06:49:00;;;;;;;0.60;0.60;;;-2.00;92.50;;;;;;4927211;29;20175;-58
2024/01/08 06:51:26;;;;;;;0.45;0.45;;;-1.90;92.60;;;;;;4916316;29;20191;-57
2024/01/08 06:53:52;;;;;;;0.90;0.87;;;-2.10;92.40;;;;;;4927622;29;20257;-57
2024/01/08 06:56:18;;;;;;;1.10;1.10;;;-2.10;92.30;;;;;;4926704;29;20534;-56
2024/01/08 06:58:43;;;;;;;0.47;0.47;;;-2.10;92.60;;;;;;4926122;29;20178;-57
2024/01/08 07:01:09;;;;;;;0.40;0.40;;;-2.00;92.90;;;;;;4927189;29;20182;-57
2024/01/08 07:03:35;;;;;;;0.50;0.50;;;-2.00;92.60;;;;;;4924879;29;20572;-57
2024/01/08 07:06:02;;;;;;;0.30;0.30;;;-2.00;92.30;;;;;;4926224;29;20182;-57
2024/01/08 07:08:28;;;;;;;0.50;0.50;;;-2.00;92.40;;;;;;4926771;29;20432;-59
2024/01/08 07:10:53;;;;;;;0.75;0.75;;;-2.00;92.20;;;;;;4925302;29;20178;-57
2024/01/08 07:13:19;;;;;;;0.83;0.83;;;-1.80;92.40;;;;;;4925399;29;20723;-57
2024/01/08 07:15:48;;;;;;;0.40;0.40;;;-1.80;92.30;;;;;;4926622;29;20178;-57
2024/01/08 07:18:15;;;;;;;0.63;0.63;;;-1.80;92.40;;;;;;4927240;29;20170;-57
2024/01/08 07:20:42;;;;;;;0.60;0.60;;;-1.80;92.40;;;;;;4925739;29;20238;-57
2024/01/08 07:23:12;;;;;;;0.82;0.82;;;-1.70;92.30;;;;;;4920793;29;20222;-57
2024/01/08 07:25:39;;;;;;;0.60;0.60;;;-1.60;92.30;;;;;;4917661;29;20183;-57
2024/01/08 07:28:09;;;;;;;2.00;2.00;;;-1.40;92.10;;;;;;4917279;29;20175;-58
2024/01/08 07:30:36;;;;;;;0.55;0.55;;;-1.30;91.20;;;;;;4917489;29;20187;-57
2024/01/08 07:33:04;;;;;;;1.08;1.08;;;-1.20;90.90;;;;;;4916906;29;20203;-57
2024/01/08 07:35:30;;;;;;;0.50;0.50;;;-1.20;90.60;;;;;;4917120;29;20178;-57
2024/01/08 07:37:55;;;;;;;0.30;0.30;;;-1.20;90.80;;;;;;4917163;29;20246;-58
2024/01/08 07:40:27;;;;;;;1.03;1.03;;;-1.40;90.60;;;;;;4916940;29;20210;-57
2024/01/08 07:42:54;;;;;;;1.08;0.98;;;-1.40;91.00;;;;;;4916800;29;20191;-56
2024/01/08 07:45:23;;;;;;;0.65;0.65;;;-1.50;90.50;;;;;;4916832;29;20257;-55
2024/01/08 07:47:50;;;;;;;0.40;0.40;;;-1.60;90.50;;;;;;4917049;29;20186;-57
2024/01/08 07:50:16;;;;;;;1.40;1.33;;;-1.50;90.80;;;;;;4916731;29;20679;-57
2024/01/08 07:52:42;;;;;;;2.35;1.00;;;-1.70;90.80;;;;;;4916528;29;20208;-57
2024/01/08 07:55:08;;;;;;;0.30;0.30;;;-1.60;90.90;;;;;;4921558;29;20217;-57
2024/01/08 07:57:34;;;;;;;1.58;0.88;;;-1.60;90.80;;;;;;4926451;29;20287;-57
2024/01/08 08:00:06;;;;;;;2.50;1.85;;;-1.60;90.70;;;;;;4924309;29;20302;-57
2024/01/08 08:02:32;;;;;;;0.50;0.50;;;-1.50;90.50;;;;;;4925390;29;20201;-56
2024/01/08 08:04:58;;;;;;;0.52;0.52;;;-1.40;90.80;;;;;;4926489;29;20657;-56
2024/01/08 08:07:24;;;;;;;1.35;1.30;;;-1.50;90.70;;;;;;4923833;29;20178;-56
2024/01/08 08:09:50;;;;;;;0.50;0.50;;;-1.80;90.50;;;;;;4925859;29;20265;-56
2024/01/08 08:12:18;;;;;;;1.50;0.80;;;-1.80;90.80;;;;;;4924314;29;20221;-54
2024/01/08 08:14:47;;;;;;;0.52;0.52;;;-1.70;90.80;;;;;;4924423;29;20290;-57
2024/01/08 08:17:13;;;;;;;0.60;0.60;;;-1.50;91.10;;;;;;4924649;29;20192;-58
2024/01/08 08:19:42;;;;;;;0.40;0.40;;;-1.80;90.90;;;;;;4924673;29;20170;-56
2024/01/08 08:22:07;;;;;;;1.08;0.98;;;-1.80;91.40;;;;;;4925445;29;20206;-58
2024/01/08 08:24:33;;;;;;;3.33;3.03;;;-1.90;91.00;;;;;;4918355;29;20910;-54
2024/01/08 08:27:00;;;;;;;0.40;0.40;;;-2.30;91.00;;;;;;4924164;29;20451;-57
2024/01/08 08:29:25;;;;;;;0.88;0.88;;;-2.40;91.60;;;;;;4925609;29;20184;-56
2024/01/08 08:31:51;;;;;;;0.50;0.50;;;-2.40;92.00;;;;;;4927001;29;20178;-57
2024/01/08 08:34:19;;;;;;;0.70;0.70;;;-2.20;91.80;;;;;;4924675;29;20405;-58
2024/01/08 08:36:45;;;;;;;0.40;0.40;;;-2.20;91.40;;;;;;4924170;29;20228;-57
2024/01/08 08:39:15;;;;;;;0.50;0.50;;;-2.30;91.30;;;;;;4925197;29;20591;-58
2024/01/08 08:41:42;;;;;;;0.98;0.98;;;-2.10;91.70;;;;;;4925607;29;20182;-58
2024/01/08 08:44:08;;;;;;;1.02;1.02;;;-2.10;91.80;;;;;;4918186;29;20234;-57
2024/01/08 08:46:34;;;;;;;2.08;1.98;;;-2.10;91.60;;;;;;4914866;29;20194;-58
2024/01/08 08:49:01;;;;;;;0.40;0.40;;;-2.10;91.20;;;;;;4922193;29;20549;-58
2024/01/08 08:51:27;;;;;;;0.50;0.50;;;-2.30;91.00;;;;;;4953778;29;20523;-58
2024/01/08 08:53:52;;;;;;;1.30;1.23;;;-2.40;91.40;;;;;;4953847;28;20255;-58
2024/01/08 08:56:18;;;;;;;0.67;0.67;;;-2.50;91.80;;;;;;4953804;29;20174;-58
2024/01/08 08:58:43;;;;;;;0.87;0.87;;;-2.50;91.60;;;;;;4953796;29;20196;-58
2024/01/08 09:01:11;;;;;;;1.30;1.27;;;-2.50;92.00;;;;;;4953577;29;20173;-57
2024/01/08 09:03:37;;;;;;;0.40;0.40;;;-2.40;92.20;;;;;;4953842;28;20377;-58
2024/01/08 09:06:02;;;;;;;1.80;1.70;;;-2.60;92.60;;;;;;4953813;29;20612;-58
2024/01/08 09:08:28;;;;;;;1.50;1.40;;;-2.50;92.70;;;;;;4953745;29;20556;-58
2024/01/08 09:10:54;;;;;;;0.50;0.50;;;-2.40;92.70;;;;;;4953307;29;20177;-58
2024/01/08 09:13:19;;;;;;;0.70;0.70;;;-2.50;92.20;;;;;;4953754;28;20231;-58
2024/01/08 09:15:45;;;;;;;0.40;0.40;;;-2.50;92.00;;;;;;4953789;29;20232;-58
2024/01/08 09:18:10;;;;;;;0.63;0.63;;;-2.50;91.90;;;;;;4953648;29;20173;-58
2024/01/08 09:20:36;;;;;;;0.70;0.70;;;-2.40;92.00;;;;;;4947148;29;20711;-58
2024/01/08 09:23:02;;;;;;;0.90;0.70;;;-2.50;92.20;;;;;;4922566;29;20209;-58
2024/01/08 09:25:27;;;;;;;2.20;2.10;;;-2.40;91.70;;;;;;4925317;29;20186;-59
2024/01/08 09:27:53;;;;;;;0.60;0.60;;;-2.30;92.00;;;;;;4925718;29;20206;-59
2024/01/08 09:30:19;;;;;;;0.77;0.77;;;-2.20;92.60;;;;;;4928298;29;20184;-58
2024/01/08 09:32:44;;;;;;;0.80;0.80;;;-2.00;92.30;;;;;;4928946;29;20603;-58
2024/01/08 09:35:10;;;;;;;0.40;0.40;;;-2.10;92.00;;;;;;4927370;29;20171;-58
2024/01/08 09:37:36;;;;;;;1.27;1.27;;;-2.00;91.70;;;;;;4928808;29;20181;-58
2024/01/08 09:40:02;;;;;;;0.77;0.77;;;-2.10;91.40;;;;;;4928472;29;20166;-58
2024/01/08 09:42:28;;;;;;;1.20;0.88;;;-2.30;91.90;;;;;;4926886;29;20438;-56
2024/01/08 09:44:54;;;;;;;0.53;0.53;;;-2.30;92.00;;;;;;4928688;29;20197;-58
2024/01/08 09:47:20;;;;;;;5.03;1.48;;;-2.30;92.00;;;;;;4918915;29;20913;-58
2024/01/08 09:49:46;;;;;;;0.38;0.38;;;-2.10;92.10;;;;;;4926303;29;20594;-58
2024/01/08 09:52:13;;;;;;;0.50;0.50;;;-2.00;91.80;;;;;;4927948;29;20281;-56
2024/01/08 09:54:40;;;;;;;0.50;0.50;;;-1.80;91.70;;;;;;4927301;29;20606;-58
2024/01/08 09:57:08;;;;;;;0.77;0.77;;;-1.60;91.20;;;;;;4928705;29;20178;-59
2024/01/08 09:59:34;;;;;;;0.80;0.73;;;-1.80;91.10;;;;;;4928733;29;20179;-58
2024/01/08 10:02:00;;;;;;;0.47;0.47;;;-2.00;91.20;;;;;;4911693;29;20269;-56
2024/01/08 10:04:26;;;;;;;0.80;0.80;;;-2.20;90.90;;;;;;4927188;29;20426;-57
2024/01/08 10:07:08;;;;;;;1.30;0.93;;;-2.00;91.10;;;;;;4927622;29;20980;-59
2024/01/08 10:09:34;;;;;;;0.50;0.40;;;-2.00;91.30;;;;;;4926220;29;20418;-58
2024/01/08 10:12:00;;;;;;;0.60;0.60;;;-2.10;91.10;;;;;;4925874;29;20262;-58
2024/01/08 10:14:27;;;;;;;0.98;0.88;;;-2.30;91.70;;;;;;4928210;29;20621;-59
2024/01/08 10:16:56;;;;;;;1.15;1.15;;;-2.20;91.70;;;;;;4928165;29;20713;-57
2024/01/08 10:19:23;;;;;;;0.40;0.40;;;-2.20;91.20;;;;;;4926982;29;20171;-56
2024/01/08 10:22:08;;;;;;;0.65;0.65;;;-2.20;91.30;;;;;;4926290;29;20177;-57
2024/01/08 10:24:35;;;;;;;0.95;0.95;;;-2.00;91.80;;;;;;4928432;29;20179;-57
2024/01/08 10:27:02;;;;;;;2.05;1.08;;;-1.70;91.00;;;;;;4972349;23;20236;-59
2024/01/08 10:29:28;;;;;;;1.10;1.02;;;-2.00;90.50;;;;;;4947545;29;20668;-60
2024/01/08 10:31:53;;;;;;;0.50;0.50;;;-1.90;91.10;;;;;;4946929;29;20197;-60
2024/01/08 10:34:21;;;;;;;1.03;0.80;;;-2.10;90.90;;;;;;4954847;29;20213;-59
2024/01/08 10:36:48;;;;;;;0.50;0.50;;;-1.80;91.00;;;;;;4941474;29;20261;-58
2024/01/08 10:39:16;;;;;;;2.67;1.35;;;-1.90;90.80;;;;;;4936960;29;20268;-59
2024/01/08 10:41:42;;;;;;;0.50;0.50;;;-2.30;91.10;;;;;;4935099;29;20177;-60
2024/01/08 10:44:08;;;;;;;1.27;1.23;;;-2.10;91.70;;;;;;4918042;29;20664;-60
2024/01/08 10:46:43;;;;;;;1.23;1.13;;;-1.80;92.10;;;;;;4918000;29;20254;-60
2024/01/08 10:49:16;;;;;;;0.50;0.50;;;-1.50;91.50;;;;;;4918014;29;20446;-60
2024/01/08 10:51:46;;;;;;;0.40;0.40;;;-1.40;90.80;;;;;;4933320;29;20603;-60
2024/01/08 10:54:16;;;;;;;0.50;0.50;;;-1.30;91.40;;;;;;4936956;29;20610;-60
2024/01/08 10:56:42;;;;;;;0.95;0.73;;;-1.20;90.70;;;;;;4936770;29;20272;-60
2024/01/08 10:59:08;;;;;;;1.13;1.13;;;-1.30;90.60;;;;;;4936940;29;20179;-60
2024/01/08 11:01:36;;;;;;;0.50;0.50;;;-1.30;90.50;;;;;;4935523;29;20190;-60
2024/01/08 11:04:03;;;;;;;0.60;0.60;;;-1.30;90.50;;;;;;4934235;29;20193;-59
2024/01/08 11:06:31;;;;;;;1.98;1.88;;;-1.40;90.50;;;;;;4926406;29;20229;-60
2024/01/08 11:08:57;;;;;;;0.50;0.50;;;-1.50;90.50;;;;;;4926110;29;20179;-59
2024/01/08 11:11:23;;;;;;;0.40;0.40;;;-1.70;90.90;;;;;;4925916;29;20178;-60
2024/01/08 11:13:49;;;;;;;1.27;1.00;;;-1.80;91.00;;;;;;4927101;29;20696;-60
2024/01/08 11:16:30;;;;;;;1.05;1.05;;;-1.70;91.00;;;;;;4918756;29;20520;-60
2024/01/08 11:19:31;;;;;;;0.65;0.65;;;-1.70;91.30;;;;;;4917429;29;20645;-60
2024/01/08 11:22:10;;;;;;;1.25;1.15;;;-1.80;91.00;;;;;;4858772;29;20189;-60
2024/01/08 11:24:36;;;;;;;0.80;0.80;;;-1.70;91.10;;;;;;4913858;29;20187;-60
2024/01/08 11:27:02;;;;;;;0.40;0.40;;;-1.60;91.10;;;;;;4926650;29;20225;-60
2024/01/08 11:29:30;;;;;;;0.60;0.60;;;-1.60;91.40;;;;;;4925716;29;20794;-59
2024/01/08 11:32:14;;;;;;;1.02;1.02;;;-1.60;91.50;;;;;;4924120;29;20183;-60
2024/01/08 11:35:13;;;;;;;1.35;1.35;;;-1.40;90.90;;;;;;4926984;29;20206;-59
2024/01/08 11:37:42;;;;;;;1.85;0.98;;;-1.10;91.40;;;;;;4898294;29;20210;-60
2024/01/08 11:40:16;;;;;;;1.10;1.10;;;-1.10;91.20;;;;;;4926230;29;20183;-60
2024/01/08 11:42:43;;;;;;;1.35;1.25;;;-1.10;90.90;;;;;;4925746;29;20186;-60
2024/01/08 11:45:09;;;;;;;1.33;1.27;;;-1.10;90.10;;;;;;4925873;29;20358;-60
2024/01/08 11:47:36;;;;;;;0.90;0.87;;;-1.10;90.60;;;;;;4925465;29;20260;-59
2024/01/08 11:50:02;;;;;;;0.45;0.45;;;-1.20;90.40;;;;;;4927028;29;20178;-59
2024/01/08 11:52:28;;;;;;;0.57;0.50;;;-1.20;91.20;;;;;;4925397;29;20186;-59
2024/01/08 11:54:54;;;;;;;0.85;0.85;;;-1.20;90.90;;;;;;4925792;29;20185;-60
2024/01/08 11:57:21;;;;;;;0.30;0.30;;;-1.40;90.20;;;;;;4924936;29;20210;-59
2024/01/08 11:59:48;;;;;;;0.57;0.40;;;-1.30;91.00;;;;;;4923907;29;20198;-59
2024/01/08 12:02:27;;;;;;;0.45;0.45;;;-1.30;90.80;;;;;;4925644;29;20219;-59
2024/01/08 12:04:58;;;;;;;1.08;1.05;;;-1.40;90.00;;;;;;4908639;29;20195;-61
2024/01/08 12:07:25;;;;;;;0.65;0.65;;;-1.20;90.20;;;;;;4926273;29;20740;-59
2024/01/08 12:09:51;;;;;;;1.65;1.55;;;-1.30;90.50;;;;;;4924554;29;20732;-60
2024/01/08 12:12:19;;;;;;;2.87;2.77;;;-1.80;90.90;;;;;;4926789;29;20269;-59
2024/01/08 12:14:47;;;;;;;0.40;0.40;;;-1.80;90.80;;;;;;4922379;29;20450;-61
2024/01/08 12:17:15;;;;;;;1.05;1.05;;;-1.80;91.40;;;;;;4925611;29;20709;-61
2024/01/08 12:19:48;;;;;;;0.50;0.50;;;-1.70;91.10;;;;;;4923922;29;20182;-61
2024/01/08 12:22:15;;;;;;;1.33;1.23;;;-1.50;91.20;;;;;;4924459;29;20179;-59
2024/01/08 12:24:42;;;;;;;1.35;1.13;;;-1.40;91.30;;;;;;4926793;29;20179;-60
2024/01/08 12:27:08;;;;;;;0.40;0.40;;;-1.50;90.60;;;;;;4923957;29;20228;-61
2024/01/08 12:29:41;;;;;;;1.58;0.75;;;-1.60;91.00;;;;;;4924033;29;20582;-61
2024/01/08 12:32:10;;;;;;;0.93;0.93;;;-1.60;91.40;;;;;;4924025;29;20192;-59
2024/01/08 12:34:42;;;;;;;1.08;1.08;;;-1.40;91.60;;;;;;4924212;29;20744;-60
2024/01/08 12:37:09;;;;;;;0.60;0.60;;;-1.30;91.90;;;;;;4923944;29;20695;-60
2024/01/08 12:39:36;;;;;;;0.40;0.40;;;-1.20;90.90;;;;;;4925598;29;20185;-60
2024/01/08 12:42:11;;;;;;;1.58;1.23;;;-1.20;90.90;;;;;;4924509;29;20175;-60
2024/01/08 12:44:37;;;;;;;4.45;2.45;;;-1.10;90.70;;;;;;4924193;29;20556;-60
2024/01/08 12:47:05;;;;;;;0.60;0.50;;;-1.50;90.20;;;;;;4924032;29;20210;-60